LICC

Catania-Fontanarossa Airport

Airport
ICAO code
LICC
IATA Code
CTA
Summary
ICAO Region
EUR
ICAO Territory
Location

Catania, Sicilia

Serving
Catania
Elevation
39 ft
Coordinates
37° 28' 0" N , 15° 3' 59" E
Metar
Observation
LICC 131520Z 08010KT 060V120 9999 FEW025CB SCT070 30/22 Q1010
Station
Catania / Fontanarossa
Date/Time
2022-08-13 15:20:00
Wind direction
80°
Wind speed
10 kts
Lowest cloud amount
few clouds
Temperature
30°C
Dew point
22°C
Humidity
62%
QNH
1010 hPa
Weather condition
n/a

Runways

Designator Length Width Surface Rops
8/26 2435 45 ASP Yes/Yes

Airport map

Aerial View

SKYbrary Partners:

Safety knowledge contributed by: